sensor_id;sensor_type;location;lat;lon;timestamp;pressure;altitude;pressure_sealevel;temperature;humidity
43804;BME280;29430;52.924;-2.388;2022-08-05T00:03:09;99710.63;;;13.79;65.58
43804;BME280;29430;52.924;-2.388;2022-08-05T00:08:06;99716.53;;;13.76;66.12
43804;BME280;29430;52.924;-2.388;2022-08-05T00:13:19;99707.22;;;13.72;66.38
43804;BME280;29430;52.924;-2.388;2022-08-05T00:18:29;99711.81;;;13.71;66.50
43804;BME280;29430;52.924;-2.388;2022-08-05T00:23:21;99720.84;;;13.72;66.99
43804;BME280;29430;52.924;-2.388;2022-08-05T00:28:34;99719.28;;;13.76;67.33
43804;BME280;29430;52.924;-2.388;2022-08-05T00:33:26;99715.72;;;13.75;68.18
43804;BME280;29430;52.924;-2.388;2022-08-05T00:38:37;99717.03;;;13.73;68.93
43804;BME280;29430;52.924;-2.388;2022-08-05T00:43:30;99723.91;;;13.75;70.20
43804;BME280;29430;52.924;-2.388;2022-08-05T00:48:37;99720.38;;;13.75;69.99
43804;BME280;29430;52.924;-2.388;2022-08-05T00:53:41;99726.41;;;13.77;70.08
43804;BME280;29430;52.924;-2.388;2022-08-05T00:58:53;99743.22;;;13.74;70.65
43804;BME280;29430;52.924;-2.388;2022-08-05T01:03:44;99734.72;;;13.70;70.35
43804;BME280;29430;52.924;-2.388;2022-08-05T01:08:40;99740.63;;;13.67;70.97
43804;BME280;29430;52.924;-2.388;2022-08-05T01:13:47;99733.50;;;13.66;71.61
43804;BME280;29430;52.924;-2.388;2022-08-05T01:18:51;99744.75;;;13.70;73.05
43804;BME280;29430;52.924;-2.388;2022-08-05T01:29:35;99735.03;;;13.74;72.88
43804;BME280;29430;52.924;-2.388;2022-08-05T01:39:45;99727.72;;;13.63;76.03
43804;BME280;29430;52.924;-2.388;2022-08-05T01:44:39;99722.75;;;13.59;76.28
43804;BME280;29430;52.924;-2.388;2022-08-05T01:49:32;99717.75;;;13.56;76.61
43804;BME280;29430;52.924;-2.388;2022-08-05T01:54:50;99707.44;;;13.58;75.25
43804;BME280;29430;52.924;-2.388;2022-08-05T01:59:45;99702.47;;;13.55;76.23
43804;BME280;29430;52.924;-2.388;2022-08-05T02:04:39;99716.09;;;13.55;77.20
43804;BME280;29430;52.924;-2.388;2022-08-05T02:09:36;99733.41;;;13.49;77.21
43804;BME280;29430;52.924;-2.388;2022-08-05T02:14:33;99731.84;;;13.41;78.14
43804;BME280;29430;52.924;-2.388;2022-08-05T02:19:35;99734.69;;;13.35;78.52
43804;BME280;29430;52.924;-2.388;2022-08-05T02:24:40;99732.22;;;13.33;78.62
43804;BME280;29430;52.924;-2.388;2022-08-05T02:29:34;99732.28;;;13.26;78.65
43804;BME280;29430;52.924;-2.388;2022-08-05T02:34:47;99739.03;;;13.24;78.88
43804;BME280;29430;52.924;-2.388;2022-08-05T02:39:46;99732.75;;;13.23;77.84
43804;BME280;29430;52.924;-2.388;2022-08-05T02:44:43;99721.50;;;13.20;77.96
43804;BME280;29430;52.924;-2.388;2022-08-05T02:49:36;99728.69;;;13.14;78.29
43804;BME280;29430;52.924;-2.388;2022-08-05T02:54:31;99732.81;;;13.05;78.04
43804;BME280;29430;52.924;-2.388;2022-08-05T02:59:28;99728.53;;;12.97;78.67
43804;BME280;29430;52.924;-2.388;2022-08-05T03:04:39;99728.19;;;12.94;78.27
43804;BME280;29430;52.924;-2.388;2022-08-05T03:09:32;99741.28;;;12.85;78.25
43804;BME280;29430;52.924;-2.388;2022-08-05T03:14:33;99740.81;;;12.76;78.25
43804;BME280;29430;52.924;-2.388;2022-08-05T03:19:36;99749.06;;;12.69;78.25
43804;BME280;29430;52.924;-2.388;2022-08-05T03:24:27;99749.63;;;12.60;78.89
43804;BME280;29430;52.924;-2.388;2022-08-05T03:29:21;99751.00;;;12.50;79.10
43804;BME280;29430;52.924;-2.388;2022-08-05T03:34:13;99751.91;;;12.44;79.44
43804;BME280;29430;52.924;-2.388;2022-08-05T03:39:07;99742.53;;;12.40;79.40
43804;BME280;29430;52.924;-2.388;2022-08-05T03:44:10;99745.72;;;12.37;79.11
43804;BME280;29430;52.924;-2.388;2022-08-05T03:49:02;99748.91;;;12.34;79.58
43804;BME280;29430;52.924;-2.388;2022-08-05T03:53:59;99741.19;;;12.31;79.58
43804;BME280;29430;52.924;-2.388;2022-08-05T03:59:23;99743.31;;;12.29;79.24
43804;BME280;29430;52.924;-2.388;2022-08-05T04:04:20;99753.22;;;12.23;79.55
43804;BME280;29430;52.924;-2.388;2022-08-05T04:09:17;99765.16;;;12.22;79.84
43804;BME280;29430;52.924;-2.388;2022-08-05T04:14:17;99752.72;;;12.14;80.12
43804;BME280;29430;52.924;-2.388;2022-08-05T04:19:20;99760.88;;;12.14;79.93
43804;BME280;29430;52.924;-2.388;2022-08-05T04:24:13;99763.19;;;12.11;80.06
43804;BME280;29430;52.924;-2.388;2022-08-05T04:29:12;99765.91;;;12.11;79.71
43804;BME280;29430;52.924;-2.388;2022-08-05T04:34:04;99766.13;;;12.09;79.65
43804;BME280;29430;52.924;-2.388;2022-08-05T04:39:17;99764.78;;;12.00;79.11
43804;BME280;29430;52.924;-2.388;2022-08-05T04:44:10;99777.53;;;11.99;79.51
43804;BME280;29430;52.924;-2.388;2022-08-05T04:49:01;99773.38;;;11.97;78.54
43804;BME280;29430;52.924;-2.388;2022-08-05T04:53:53;99777.81;;;11.91;79.40
43804;BME280;29430;52.924;-2.388;2022-08-05T04:58:45;99788.50;;;11.86;79.10
43804;BME280;29430;52.924;-2.388;2022-08-05T05:03:37;99786.69;;;11.80;79.47
43804;BME280;29430;52.924;-2.388;2022-08-05T05:08:35;99785.50;;;11.76;79.20
43804;BME280;29430;52.924;-2.388;2022-08-05T05:13:33;99792.06;;;11.68;79.96
43804;BME280;29430;52.924;-2.388;2022-08-05T05:18:33;99781.06;;;11.56;79.78
43804;BME280;29430;52.924;-2.388;2022-08-05T05:23:25;99785.25;;;11.59;80.05
43804;BME280;29430;52.924;-2.388;2022-08-05T05:28:37;99797.16;;;11.58;80.49
43804;BME280;29430;52.924;-2.388;2022-08-05T05:33:35;99785.47;;;11.57;80.72
43804;BME280;29430;52.924;-2.388;2022-08-05T05:38:46;99794.59;;;11.63;80.96
43804;BME280;29430;52.924;-2.388;2022-08-05T05:43:38;99807.53;;;11.93;82.71
43804;BME280;29430;52.924;-2.388;2022-08-05T05:48:49;99813.44;;;12.76;80.42
43804;BME280;29430;52.924;-2.388;2022-08-05T05:53:41;99822.03;;;13.52;77.90
43804;BME280;29430;52.924;-2.388;2022-08-05T05:58:48;99825.00;;;14.21;74.94
43804;BME280;29430;52.924;-2.388;2022-08-05T06:03:41;99835.00;;;14.80;72.96
43804;BME280;29430;52.924;-2.388;2022-08-05T06:08:52;99839.59;;;15.37;71.44
43804;BME280;29430;52.924;-2.388;2022-08-05T06:13:44;99838.06;;;15.92;69.20
43804;BME280;29430;52.924;-2.388;2022-08-05T06:18:44;99848.91;;;16.65;66.33
43804;BME280;29430;52.924;-2.388;2022-08-05T06:23:36;99848.75;;;17.21;63.67
43804;BME280;29430;52.924;-2.388;2022-08-05T06:28:34;99853.69;;;17.51;61.84
43804;BME280;29430;52.924;-2.388;2022-08-05T06:33:27;99862.22;;;17.23;61.28
43804;BME280;29430;52.924;-2.388;2022-08-05T06:38:39;99867.28;;;17.09;63.04
43804;BME280;29430;52.924;-2.388;2022-08-05T06:43:37;99874.19;;;17.44;63.52
43804;BME280;29430;52.924;-2.388;2022-08-05T06:48:49;99879.72;;;18.51;61.45
43804;BME280;29430;52.924;-2.388;2022-08-05T06:53:49;99879.47;;;19.26;58.24
43804;BME280;29430;52.924;-2.388;2022-08-05T06:58:44;99885.06;;;19.78;56.16
43804;BME280;29430;52.924;-2.388;2022-08-05T07:03:37;99880.66;;;20.13;55.23
43804;BME280;29430;52.924;-2.388;2022-08-05T07:08:29;99887.81;;;20.09;53.97
43804;BME280;29430;52.924;-2.388;2022-08-05T07:13:21;99880.06;;;19.64;54.21
43804;BME280;29430;52.924;-2.388;2022-08-05T07:18:50;99882.47;;;19.14;54.24
43804;BME280;29430;52.924;-2.388;2022-08-05T07:23:42;99890.13;;;18.97;54.92
43804;BME280;29430;52.924;-2.388;2022-08-05T07:28:40;99904.47;;;19.09;54.52
43804;BME280;29430;52.924;-2.388;2022-08-05T07:33:32;99910.69;;;18.89;54.08
43804;BME280;29430;52.924;-2.388;2022-08-05T07:38:27;99910.03;;;18.72;55.08
43804;BME280;29430;52.924;-2.388;2022-08-05T07:43:25;99908.78;;;18.95;55.25
43804;BME280;29430;52.924;-2.388;2022-08-05T07:48:17;99899.88;;;19.61;54.83
43804;BME280;29430;52.924;-2.388;2022-08-05T07:53:29;99902.63;;;20.49;51.90
43804;BME280;29430;52.924;-2.388;2022-08-05T07:58:40;99909.75;;;21.36;49.98
43804;BME280;29430;52.924;-2.388;2022-08-05T08:03:49;99915.66;;;22.03;47.67
43804;BME280;29430;52.924;-2.388;2022-08-05T08:08:41;99927.31;;;22.24;47.77
43804;BME280;29430;52.924;-2.388;2022-08-05T08:13:35;99929.22;;;22.29;48.11
43804;BME280;29430;52.924;-2.388;2022-08-05T08:18:39;99933.91;;;22.28;44.27
43804;BME280;29430;52.924;-2.388;2022-08-05T08:23:31;99934.00;;;22.18;44.81
43804;BME280;29430;52.924;-2.388;2022-08-05T08:28:43;99944.38;;;22.02;44.98
43804;BME280;29430;52.924;-2.388;2022-08-05T08:33:52;99936.97;;;22.27;44.91
43804;BME280;29430;52.924;-2.388;2022-08-05T08:38:44;99947.50;;;21.90;44.42
43804;BME280;29430;52.924;-2.388;2022-08-05T08:43:44;99946.72;;;21.35;46.12
43804;BME280;29430;52.924;-2.388;2022-08-05T08:48:57;99941.59;;;21.68;44.70
43804;BME280;29430;52.924;-2.388;2022-08-05T08:54:09;99946.50;;;21.76;45.25
43804;BME280;29430;52.924;-2.388;2022-08-05T08:59:04;99954.88;;;21.60;45.44
43804;BME280;29430;52.924;-2.388;2022-08-05T09:04:11;99950.00;;;21.42;44.89
43804;BME280;29430;52.924;-2.388;2022-08-05T09:09:04;99948.69;;;21.29;46.08
43804;BME280;29430;52.924;-2.388;2022-08-05T09:13:56;99953.59;;;21.37;45.92
43804;BME280;29430;52.924;-2.388;2022-08-05T09:19:08;99947.25;;;21.37;45.80
43804;BME280;29430;52.924;-2.388;2022-08-05T09:24:07;99951.66;;;21.38;45.35
43804;BME280;29430;52.924;-2.388;2022-08-05T09:29:03;99948.13;;;21.82;45.98
43804;BME280;29430;52.924;-2.388;2022-08-05T09:34:04;99944.88;;;22.44;44.32
43804;BME280;29430;52.924;-2.388;2022-08-05T09:39:00;99941.31;;;22.92;44.25
43804;BME280;29430;52.924;-2.388;2022-08-05T09:43:53;99949.72;;;23.30;42.51
43804;BME280;29430;52.924;-2.388;2022-08-05T09:48:45;99954.13;;;22.82;41.84
43804;BME280;29430;52.924;-2.388;2022-08-05T09:53:57;99951.75;;;22.46;43.82
43804;BME280;29430;52.924;-2.388;2022-08-05T09:59:08;99945.53;;;23.08;44.41
43804;BME280;29430;52.924;-2.388;2022-08-05T10:04:11;99934.03;;;23.82;41.10
43804;BME280;29430;52.924;-2.388;2022-08-05T10:09:16;99941.97;;;24.22;41.33
43804;BME280;29430;52.924;-2.388;2022-08-05T10:14:27;99933.28;;;24.75;40.09
43804;BME280;29430;52.924;-2.388;2022-08-05T10:19:23;99934.19;;;25.12;37.78
43804;BME280;29430;52.924;-2.388;2022-08-05T10:24:36;99930.34;;;25.50;38.62
43804;BME280;29430;52.924;-2.388;2022-08-05T10:29:30;99943.63;;;25.76;37.49
43804;BME280;29430;52.924;-2.388;2022-08-05T10:34:47;99946.66;;;24.87;37.85
43804;BME280;29430;52.924;-2.388;2022-08-05T10:39:43;99953.91;;;24.22;38.08
43804;BME280;29430;52.924;-2.388;2022-08-05T10:44:56;99950.38;;;24.17;39.04
43804;BME280;29430;52.924;-2.388;2022-08-05T10:50:08;99957.75;;;24.87;38.98
43804;BME280;29430;52.924;-2.388;2022-08-05T10:55:23;99955.75;;;25.43;36.40
43804;BME280;29430;52.924;-2.388;2022-08-05T11:00:17;99950.44;;;25.69;37.16
43804;BME280;29430;52.924;-2.388;2022-08-05T11:05:13;99958.16;;;26.09;35.07
43804;BME280;29430;52.924;-2.388;2022-08-05T11:10:20;99959.47;;;26.34;36.18
43804;BME280;29430;52.924;-2.388;2022-08-05T11:25:34;99992.56;;;25.99;35.33
43804;BME280;29430;52.924;-2.388;2022-08-05T11:35:57;100011.06;;;23.37;42.22
43804;BME280;29430;52.924;-2.388;2022-08-05T11:41:01;100008.47;;;23.21;45.19
43804;BME280;29430;52.924;-2.388;2022-08-05T11:46:13;100007.50;;;23.55;44.29
43804;BME280;29430;52.924;-2.388;2022-08-05T11:51:24;100004.34;;;24.05;44.41
43804;BME280;29430;52.924;-2.388;2022-08-05T12:02:02;100016.88;;;23.78;43.39
43804;BME280;29430;52.924;-2.388;2022-08-05T12:07:03;100023.06;;;23.03;45.87
43804;BME280;29430;52.924;-2.388;2022-08-05T12:11:59;100028.44;;;22.65;47.20
43804;BME280;29430;52.924;-2.388;2022-08-05T12:16:52;100023.78;;;22.89;50.71
43804;BME280;29430;52.924;-2.388;2022-08-05T12:21:49;100022.88;;;23.23;45.78
43804;BME280;29430;52.924;-2.388;2022-08-05T12:31:35;100032.03;;;23.43;42.81
43804;BME280;29430;52.924;-2.388;2022-08-05T12:36:38;100042.34;;;22.84;43.57
43804;BME280;29430;52.924;-2.388;2022-08-05T12:41:35;100062.47;;;22.21;45.21
43804;BME280;29430;52.924;-2.388;2022-08-05T12:46:35;100055.63;;;21.58;44.93
43804;BME280;29430;52.924;-2.388;2022-08-05T12:51:28;100069.81;;;21.20;46.59
43804;BME280;29430;52.924;-2.388;2022-08-05T12:56:42;100071.78;;;21.09;46.53
43804;BME280;29430;52.924;-2.388;2022-08-05T13:01:42;100078.97;;;21.05;46.08
43804;BME280;29430;52.924;-2.388;2022-08-05T13:06:59;100072.63;;;21.05;46.15
43804;BME280;29430;52.924;-2.388;2022-08-05T13:12:01;100073.47;;;21.00;45.93
43804;BME280;29430;52.924;-2.388;2022-08-05T13:16:57;100071.47;;;21.16;44.84
43804;BME280;29430;52.924;-2.388;2022-08-05T13:21:49;100073.94;;;21.28;45.06
43804;BME280;29430;52.924;-2.388;2022-08-05T13:26:47;100083.31;;;21.32;44.22
43804;BME280;29430;52.924;-2.388;2022-08-05T13:31:42;100092.19;;;21.14;45.01
43804;BME280;29430;52.924;-2.388;2022-08-05T13:36:53;100091.41;;;20.98;46.00
43804;BME280;29430;52.924;-2.388;2022-08-05T13:41:45;100080.63;;;21.06;44.54
43804;BME280;29430;52.924;-2.388;2022-08-05T13:46:38;100088.84;;;21.32;43.62
43804;BME280;29430;52.924;-2.388;2022-08-05T13:51:49;100082.72;;;21.56;44.63
43804;BME280;29430;52.924;-2.388;2022-08-05T13:56:45;100098.16;;;21.46;44.96
43804;BME280;29430;52.924;-2.388;2022-08-05T14:01:42;100105.72;;;21.15;45.85
43804;BME280;29430;52.924;-2.388;2022-08-05T14:06:46;100109.31;;;20.85;46.11
43804;BME280;29430;52.924;-2.388;2022-08-05T14:11:49;100100.78;;;20.71;47.36
43804;BME280;29430;52.924;-2.388;2022-08-05T14:17:00;100088.38;;;20.89;47.02
43804;BME280;29430;52.924;-2.388;2022-08-05T14:21:53;100103.81;;;20.85;44.56
43804;BME280;29430;52.924;-2.388;2022-08-05T14:27:02;100122.84;;;20.71;44.25
43804;BME280;29430;52.924;-2.388;2022-08-05T14:32:08;100112.63;;;20.82;45.74
43804;BME280;29430;52.924;-2.388;2022-08-05T14:37:06;100118.69;;;20.79;42.43
43804;BME280;29430;52.924;-2.388;2022-08-05T14:42:04;100124.50;;;20.72;42.62
43804;BME280;29430;52.924;-2.388;2022-08-05T14:47:12;100127.00;;;20.68;41.41
43804;BME280;29430;52.924;-2.388;2022-08-05T14:52:04;100123.06;;;20.54;42.66
43804;BME280;29430;52.924;-2.388;2022-08-05T14:57:00;100127.19;;;20.46;41.43
43804;BME280;29430;52.924;-2.388;2022-08-05T15:02:00;100136.31;;;20.47;41.49
43804;BME280;29430;52.924;-2.388;2022-08-05T15:06:53;100145.59;;;20.15;43.75
43804;BME280;29430;52.924;-2.388;2022-08-05T15:11:45;100122.97;;;20.08;45.24
43804;BME280;29430;52.924;-2.388;2022-08-05T15:16:43;100135.13;;;20.07;44.12
43804;BME280;29430;52.924;-2.388;2022-08-05T15:21:37;100141.13;;;19.98;44.48
43804;BME280;29430;52.924;-2.388;2022-08-05T15:26:29;100138.63;;;19.87;43.85
43804;BME280;29430;52.924;-2.388;2022-08-05T15:31:22;100136.88;;;19.75;43.04
43804;BME280;29430;52.924;-2.388;2022-08-05T15:36:25;100145.66;;;19.67;42.79
43804;BME280;29430;52.924;-2.388;2022-08-05T15:41:18;100143.41;;;19.59;42.45
43804;BME280;29430;52.924;-2.388;2022-08-05T15:46:13;100153.59;;;19.58;43.79
43804;BME280;29430;52.924;-2.388;2022-08-05T15:51:06;100159.94;;;19.59;43.57
43804;BME280;29430;52.924;-2.388;2022-08-05T15:55:58;100164.56;;;19.53;43.52
43804;BME280;29430;52.924;-2.388;2022-08-05T16:00:56;100168.28;;;19.31;43.73
43804;BME280;29430;52.924;-2.388;2022-08-05T16:06:08;100170.31;;;19.09;45.20
43804;BME280;29430;52.924;-2.388;2022-08-05T16:11:02;100174.97;;;19.03;45.60
43804;BME280;29430;52.924;-2.388;2022-08-05T16:15:54;100175.81;;;19.09;45.20
43804;BME280;29430;52.924;-2.388;2022-08-05T16:20:46;100177.44;;;19.05;45.10
43804;BME280;29430;52.924;-2.388;2022-08-05T16:25:40;100181.53;;;19.02;45.20
43804;BME280;29430;52.924;-2.388;2022-08-05T16:30:32;100188.13;;;19.01;44.12
43804;BME280;29430;52.924;-2.388;2022-08-05T16:35:26;100179.59;;;18.98;43.93
43804;BME280;29430;52.924;-2.388;2022-08-05T16:40:32;100198.78;;;18.92;44.69
43804;BME280;29430;52.924;-2.388;2022-08-05T16:45:24;100194.84;;;18.83;45.13
43804;BME280;29430;52.924;-2.388;2022-08-05T16:50:36;100198.09;;;18.80;45.72
43804;BME280;29430;52.924;-2.388;2022-08-05T16:55:28;100206.50;;;18.68;45.04
43804;BME280;29430;52.924;-2.388;2022-08-05T17:00:37;100207.28;;;18.64;45.93
43804;BME280;29430;52.924;-2.388;2022-08-05T17:05:30;100218.47;;;18.57;46.03
43804;BME280;29430;52.924;-2.388;2022-08-05T17:10:22;100215.09;;;18.50;45.47
43804;BME280;29430;52.924;-2.388;2022-08-05T17:15:21;100221.63;;;18.43;46.18
43804;BME280;29430;52.924;-2.388;2022-08-05T17:20:12;100223.97;;;18.35;45.18
43804;BME280;29430;52.924;-2.388;2022-08-05T17:25:05;100223.94;;;18.30;46.57
43804;BME280;29430;52.924;-2.388;2022-08-05T17:30:17;100230.44;;;18.23;45.65
43804;BME280;29430;52.924;-2.388;2022-08-05T17:35:19;100226.25;;;18.16;45.85
43804;BME280;29430;52.924;-2.388;2022-08-05T17:40:13;100225.94;;;18.12;46.10
43804;BME280;29430;52.924;-2.388;2022-08-05T17:45:08;100239.50;;;18.02;46.21
43804;BME280;29430;52.924;-2.388;2022-08-05T17:50:11;100236.63;;;17.92;45.03
43804;BME280;29430;52.924;-2.388;2022-08-05T17:55:03;100241.47;;;17.84;44.90
43804;BME280;29430;52.924;-2.388;2022-08-05T17:59:58;100246.09;;;17.84;46.14
43804;BME280;29430;52.924;-2.388;2022-08-05T18:04:55;100254.06;;;17.85;46.69
43804;BME280;29430;52.924;-2.388;2022-08-05T18:09:49;100261.06;;;17.76;47.31
43804;BME280;29430;52.924;-2.388;2022-08-05T18:14:50;100263.03;;;17.59;47.13
43804;BME280;29430;52.924;-2.388;2022-08-05T18:19:42;100272.50;;;17.51;48.34
43804;BME280;29430;52.924;-2.388;2022-08-05T18:24:41;100272.31;;;17.41;47.97
43804;BME280;29430;52.924;-2.388;2022-08-05T18:29:33;100289.19;;;17.32;47.67
43804;BME280;29430;52.924;-2.388;2022-08-05T18:34:31;100282.16;;;17.20;48.02
43804;BME280;29430;52.924;-2.388;2022-08-05T18:39:31;100286.38;;;17.10;48.26
43804;BME280;29430;52.924;-2.388;2022-08-05T18:44:43;100285.69;;;17.03;48.61
43804;BME280;29430;52.924;-2.388;2022-08-05T18:49:46;100297.28;;;16.93;49.04
43804;BME280;29430;52.924;-2.388;2022-08-05T18:55:04;100297.28;;;16.93;49.92
43804;BME280;29430;52.924;-2.388;2022-08-05T19:00:00;100301.94;;;16.93;49.99
43804;BME280;29430;52.924;-2.388;2022-08-05T19:05:10;100303.13;;;16.85;49.97
43804;BME280;29430;52.924;-2.388;2022-08-05T19:10:22;100304.34;;;16.77;50.19
43804;BME280;29430;52.924;-2.388;2022-08-05T19:15:19;100305.31;;;16.71;50.27
43804;BME280;29430;52.924;-2.388;2022-08-05T19:20:30;100298.13;;;16.53;50.56
43804;BME280;29430;52.924;-2.388;2022-08-05T19:25:23;100304.81;;;16.45;51.03
43804;BME280;29430;52.924;-2.388;2022-08-05T19:30:21;100301.63;;;16.37;50.96
43804;BME280;29430;52.924;-2.388;2022-08-05T19:35:14;100308.31;;;16.29;51.08
43804;BME280;29430;52.924;-2.388;2022-08-05T19:40:06;100307.25;;;16.18;51.02
43804;BME280;29430;52.924;-2.388;2022-08-05T19:45:00;100312.16;;;16.04;51.94
43804;BME280;29430;52.924;-2.388;2022-08-05T19:49:56;100327.41;;;15.88;52.01
43804;BME280;29430;52.924;-2.388;2022-08-05T19:54:51;100323.59;;;15.78;52.42
43804;BME280;29430;52.924;-2.388;2022-08-05T19:59:42;100339.13;;;15.65;52.98
43804;BME280;29430;52.924;-2.388;2022-08-05T20:04:53;100336.97;;;15.55;52.92
43804;BME280;29430;52.924;-2.388;2022-08-05T20:09:49;100340.75;;;15.43;53.52
43804;BME280;29430;52.924;-2.388;2022-08-05T20:14:46;100342.03;;;15.28;54.06
43804;BME280;29430;52.924;-2.388;2022-08-05T20:19:42;100348.28;;;15.17;54.42
43804;BME280;29430;52.924;-2.388;2022-08-05T20:24:34;100354.06;;;15.09;54.59
43804;BME280;29430;52.924;-2.388;2022-08-05T20:29:26;100365.56;;;14.99;54.98
43804;BME280;29430;52.924;-2.388;2022-08-05T20:34:18;100358.97;;;14.88;55.24
43804;BME280;29430;52.924;-2.388;2022-08-05T20:39:13;100371.16;;;14.74;55.71
43804;BME280;29430;52.924;-2.388;2022-08-05T20:44:07;100377.97;;;14.64;55.74
43804;BME280;29430;52.924;-2.388;2022-08-05T20:49:18;100384.16;;;14.53;56.80
43804;BME280;29430;52.924;-2.388;2022-08-05T20:54:16;100381.50;;;14.46;57.06
43804;BME280;29430;52.924;-2.388;2022-08-05T20:59:08;100389.16;;;14.38;57.72
43804;BME280;29430;52.924;-2.388;2022-08-05T21:04:09;100398.00;;;14.33;57.98
43804;BME280;29430;52.924;-2.388;2022-08-05T21:09:04;100401.28;;;14.23;58.83
43804;BME280;29430;52.924;-2.388;2022-08-05T21:13:57;100410.97;;;14.19;58.79
43804;BME280;29430;52.924;-2.388;2022-08-05T21:18:49;100423.41;;;14.15;59.17
43804;BME280;29430;52.924;-2.388;2022-08-05T21:23:40;100425.50;;;14.13;59.08
43804;BME280;29430;52.924;-2.388;2022-08-05T21:28:32;100418.84;;;14.09;59.26
43804;BME280;29430;52.924;-2.388;2022-08-05T21:33:24;100430.00;;;14.01;59.41
43804;BME280;29430;52.924;-2.388;2022-08-05T21:38:27;100418.13;;;13.95;59.63
43804;BME280;29430;52.924;-2.388;2022-08-05T21:43:20;100428.63;;;13.91;59.76
43804;BME280;29430;52.924;-2.388;2022-08-05T21:48:15;100433.91;;;13.86;59.93
43804;BME280;29430;52.924;-2.388;2022-08-05T21:53:09;100437.38;;;13.75;60.63
43804;BME280;29430;52.924;-2.388;2022-08-05T21:58:08;100440.31;;;13.73;60.48
43804;BME280;29430;52.924;-2.388;2022-08-05T22:03:02;100448.28;;;13.68;60.91
43804;BME280;29430;52.924;-2.388;2022-08-05T22:07:54;100461.53;;;13.65;61.21
43804;BME280;29430;52.924;-2.388;2022-08-05T22:12:55;100457.34;;;13.62;60.84
43804;BME280;29430;52.924;-2.388;2022-08-05T22:17:48;100454.69;;;13.55;60.94
43804;BME280;29430;52.924;-2.388;2022-08-05T22:22:50;100460.78;;;13.51;61.59
43804;BME280;29430;52.924;-2.388;2022-08-05T22:28:11;100457.88;;;13.46;61.22
43804;BME280;29430;52.924;-2.388;2022-08-05T22:33:03;100460.63;;;13.39;61.39
43804;BME280;29430;52.924;-2.388;2022-08-05T22:38:06;100469.03;;;13.31;62.29
43804;BME280;29430;52.924;-2.388;2022-08-05T22:43:00;100477.63;;;13.28;62.58
43804;BME280;29430;52.924;-2.388;2022-08-05T22:47:55;100476.41;;;13.23;62.99
43804;BME280;29430;52.924;-2.388;2022-08-05T22:52:48;100472.22;;;13.21;62.55
43804;BME280;29430;52.924;-2.388;2022-08-05T22:57:41;100477.25;;;13.17;62.63
43804;BME280;29430;52.924;-2.388;2022-08-05T23:02:36;100482.75;;;13.11;62.56
43804;BME280;29430;52.924;-2.388;2022-08-05T23:07:37;100491.16;;;13.02;62.56
43804;BME280;29430;52.924;-2.388;2022-08-05T23:12:41;100485.94;;;12.94;63.25
43804;BME280;29430;52.924;-2.388;2022-08-05T23:17:34;100500.84;;;12.92;63.08
43804;BME280;29430;52.924;-2.388;2022-08-05T23:22:46;100505.63;;;12.89;63.33
43804;BME280;29430;52.924;-2.388;2022-08-05T23:27:38;100516.56;;;12.83;63.80
43804;BME280;29430;52.924;-2.388;2022-08-05T23:32:48;100519.09;;;12.78;63.56
43804;BME280;29430;52.924;-2.388;2022-08-05T23:37:40;100510.69;;;12.72;64.29
43804;BME280;29430;52.924;-2.388;2022-08-05T23:42:33;100513.84;;;12.69;64.82
43804;BME280;29430;52.924;-2.388;2022-08-05T23:47:28;100513.25;;;12.61;64.28
43804;BME280;29430;52.924;-2.388;2022-08-05T23:52:24;100510.31;;;12.56;64.22
43804;BME280;29430;52.924;-2.388;2022-08-05T23:57:26;100519.31;;;12.49;64.91
